createdAt,value
2019-01-13T00:01:10.680Z,7.90
2019-01-13T00:04:32.549Z,7.90
2019-01-13T00:12:01.385Z,8.00
2019-01-13T00:15:20.504Z,8.00
2019-01-13T00:18:28.998Z,8.00
2019-01-13T00:21:37.769Z,8.00
2019-01-13T00:24:46.337Z,8.10
2019-01-13T00:32:06.997Z,8.10
2019-01-13T00:35:27.996Z,8.10
2019-01-13T00:38:47.951Z,8.10
2019-01-13T00:42:11.865Z,8.00
2019-01-13T00:45:20.017Z,8.10
2019-01-13T00:48:28.461Z,8.10
2019-01-13T00:51:49.378Z,8.10
2019-01-13T00:55:35.975Z,8.00
2019-01-13T00:58:54.953Z,8.10
2019-01-13T01:02:17.602Z,8.10
2019-01-13T01:05:26.177Z,8.10
2019-01-13T01:12:59.355Z,8.00
2019-01-13T01:16:19.297Z,8.00
2019-01-13T01:23:36.942Z,8.00
2019-01-13T01:30:51.252Z,8.00
2019-01-13T01:33:59.729Z,8.00
2019-01-13T01:44:27.598Z,8.00
2019-01-13T01:47:36.204Z,8.10
2019-01-13T01:50:44.700Z,8.10
2019-01-13T01:53:53.305Z,8.00
2019-01-13T01:57:01.977Z,8.00
2019-01-13T02:00:32.403Z,8.10
2019-01-13T02:03:56.236Z,8.10
2019-01-13T02:07:16.098Z,8.10
2019-01-13T02:10:38.698Z,8.20
2019-01-13T02:14:11.065Z,8.10
2019-01-13T02:17:31.456Z,8.00
2019-01-13T02:20:39.958Z,8.00
2019-01-13T02:23:48.413Z,8.00
2019-01-13T02:27:08.288Z,8.10
2019-01-13T02:34:42.110Z,8.20
2019-01-13T02:41:43.032Z,8.10
2019-01-13T02:44:51.538Z,8.10
2019-01-13T02:48:00.005Z,8.10
2019-01-13T02:55:15.113Z,8.10
2019-01-13T02:58:45.462Z,8.20
2019-01-13T03:01:54.053Z,8.20
2019-01-13T03:05:02.717Z,8.20
2019-01-13T03:08:31.844Z,8.30
2019-01-13T03:11:40.333Z,8.20
2019-01-13T03:30:37.207Z,8.10
2019-01-13T03:34:08.489Z,8.00
2019-01-13T03:37:17.020Z,8.00
2019-01-13T03:40:44.581Z,8.00
2019-01-13T03:48:27.954Z,7.90
2019-01-13T03:59:36.265Z,8.00
2019-01-13T04:03:00.923Z,8.00
2019-01-13T04:10:02.216Z,8.10
2019-01-13T04:13:10.695Z,8.00
2019-01-13T04:16:19.298Z,8.00
2019-01-13T04:27:38.478Z,8.10
2019-01-13T04:31:05.125Z,8.10
2019-01-13T04:53:37.763Z,8.00
2019-01-13T04:56:57.759Z,8.10
2019-01-13T05:08:32.961Z,8.10
2019-01-13T05:12:02.160Z,8.10
2019-01-13T05:19:05.565Z,8.00
2019-01-13T05:22:32.959Z,8.10
2019-01-13T05:25:52.902Z,8.00
2019-01-13T05:37:22.881Z,8.00
2019-01-13T06:19:43.493Z,8.10
2019-01-13T06:23:39.824Z,8.10
2019-01-13T06:50:26.499Z,8.20
2019-01-13T07:02:25.198Z,8.10
2019-01-13T07:05:45.991Z,8.10
2019-01-13T07:09:14.074Z,8.10
2019-01-13T07:31:20.948Z,8.20
2019-01-13T07:34:29.541Z,8.20
2019-01-13T07:44:59.880Z,8.30
2019-01-13T07:52:29.990Z,8.30
2019-01-13T07:55:50.805Z,8.30
2019-01-13T07:59:27.864Z,8.30
2019-01-13T08:10:22.966Z,8.30
2019-01-13T08:13:43.206Z,8.30
2019-01-13T08:17:02.229Z,8.30
2019-01-13T08:20:19.485Z,8.40
2019-01-13T08:23:50.607Z,8.40
2019-01-13T08:27:14.374Z,8.40
2019-01-13T08:30:22.943Z,8.40
2019-01-13T08:33:31.382Z,8.30
2019-01-13T08:36:39.963Z,8.30
2019-01-13T08:39:58.752Z,8.30
2019-01-13T08:43:19.297Z,8.40
2019-01-13T08:46:38.304Z,8.40
2019-01-13T08:50:06.718Z,8.50
2019-01-13T09:27:09.948Z,8.70
2019-01-13T10:21:38.946Z,9.20
2019-01-13T10:32:55.115Z,9.30
2019-01-13T12:33:54.931Z,9.70
2019-01-13T13:09:27.487Z,9.70
2019-01-13T13:12:54.499Z,9.70
2019-01-13T13:16:41.597Z,9.70
2019-01-13T13:20:02.467Z,9.70
2019-01-13T13:23:24.856Z,9.80
2019-01-13T13:26:44.679Z,9.80
2019-01-13T13:30:16.581Z,9.80
2019-01-13T13:48:47.322Z,9.90
2019-01-13T14:14:41.869Z,9.80
2019-01-13T15:44:49.575Z,9.10
2019-01-13T16:24:48.053Z,8.70
2019-01-13T17:47:08.859Z,8.70
2019-01-13T17:50:28.922Z,8.70
2019-01-13T18:17:16.928Z,8.80
2019-01-13T19:02:16.704Z,8.50
2019-01-13T19:05:51.887Z,8.40
2019-01-13T19:09:16.075Z,8.50
2019-01-13T19:45:03.134Z,8.50
2019-01-13T19:56:39.203Z,8.60
2019-01-13T19:59:54.649Z,8.60
2019-01-13T20:03:03.531Z,8.60
2019-01-13T20:22:26.968Z,8.50
2019-01-13T20:25:38.224Z,8.50
2019-01-13T20:28:48.745Z,8.40
2019-01-13T20:32:16.113Z,8.40
2019-01-13T20:35:56.188Z,8.30
2019-01-13T20:39:30.774Z,8.30
2019-01-13T20:43:16.968Z,8.20
2019-01-13T20:46:36.692Z,8.20
2019-01-13T20:53:40.238Z,8.10
2019-01-13T21:01:10.974Z,8.00
2019-01-13T21:04:20.587Z,7.90
2019-01-13T21:07:29.275Z,7.90
2019-01-13T21:10:38.454Z,7.90
2019-01-13T21:13:47.320Z,7.90
2019-01-13T21:16:56.060Z,7.90
2019-01-13T21:20:05.816Z,7.90
2019-01-13T21:23:14.993Z,7.90
2019-01-13T21:26:23.532Z,7.80
2019-01-13T21:29:31.971Z,7.70
2019-01-13T21:32:50.843Z,7.70
2019-01-13T21:35:59.304Z,7.70
2019-01-13T21:39:10.014Z,7.70
2019-01-13T21:42:18.467Z,7.70
2019-01-13T21:45:26.917Z,7.70
2019-01-13T21:48:35.384Z,7.70
2019-01-13T21:51:54.332Z,7.60
2019-01-13T21:55:02.787Z,7.50
2019-01-13T21:58:11.261Z,7.60
2019-01-13T22:01:19.696Z,7.60
2019-01-13T22:04:54.252Z,7.60
2019-01-13T22:08:14.023Z,7.60
2019-01-13T22:11:34.043Z,7.50
2019-01-13T22:14:42.496Z,7.40
2019-01-13T22:18:01.302Z,7.40
2019-01-13T22:21:09.754Z,7.40
2019-01-13T22:24:18.241Z,7.40
2019-01-13T22:27:26.667Z,7.40
2019-01-13T22:30:57.637Z,7.40
2019-01-13T22:34:17.471Z,7.40
2019-01-13T22:37:36.274Z,7.30
2019-01-13T22:40:44.724Z,7.30
2019-01-13T22:43:53.199Z,7.20
2019-01-13T22:47:01.735Z,7.20
2019-01-13T23:09:13.960Z,6.90
2019-01-13T23:12:32.848Z,6.90
2019-01-13T23:16:18.907Z,7.00
2019-01-13T23:19:43.085Z,6.90
2019-01-13T23:23:14.951Z,6.90
2019-01-13T23:27:00.237Z,6.90
2019-01-13T23:49:14.254Z,6.70
